Flight Track Log - Related Links

Times and Time Zones

All times are in EDT time to prevent confusion due to time zone crossing. See the N5765H flight status page for this flight to view local times or setup timezone preferences in your user account.

Time Position Orientation Groundspeed Altitude Reporting Facility
EDT Latitude Longitude Course Direction KTS MPH feet Rate Location/Type
Thu 11:07:25 30.3297 -81.4822 90° East 76 87 1,100  Level Jacksonville Center
Thu 11:07:43 30.3297 -81.4750 90° East 73 84 1,200 608 Climbing Jacksonville Center
Thu 11:08:44 30.3336 -81.4508 79° East 70 81 1,900 639 Climbing Jacksonville Center
Thu 11:09:45 30.3394 -81.4292 73° East 68 78 2,500 537 Climbing Jacksonville Center
Thu 11:10:47 30.3625 -81.4314 355° North 96 110 3,000 439 Climbing Jacksonville Center
Thu 11:11:48 30.3878 -81.4428 339° North 105 121 3,400 492 Climbing Jacksonville Center
Thu 11:12:49 30.4169 -81.4306 20° North 106 122 4,000 600 Climbing Jacksonville Center
Thu 11:12:58 30.4231 -81.4256 35° Northeast 107 123 4,100 609 Climbing Jacksonville Center
Thu 11:13:58 30.4522 -81.4131 20° North 107 123 4,700 531 Climbing Jacksonville Center
Thu 11:14:51 30.4686 -81.4008 33° Northeast 103 119 5,100 400 Climbing Jacksonville Center
Thu 11:14:58 30.4769 -81.3933 38° Northeast 102 117 5,100 -98 Level Jacksonville Center
Thu 11:15:52 30.5039 -81.3761 29° Northeast 149 171 5,000 -100 Descending Jacksonville Center
Thu 11:15:58 30.5081 -81.3736 27° Northeast 148 170 5,000  Level Jacksonville Center
Thu 11:16:53 30.5411 -81.3536 28° Northeast 158 182 5,000  Level Jacksonville Center
Thu 11:16:58 30.5475 -81.3489 32° Northeast 154 177 5,000  Level Jacksonville Center
Thu 11:17:54 30.5786 -81.3314 26° Northeast 158 182 5,000  Level Jacksonville Center
Thu 11:17:58 30.5911 -81.3289 10° North 154 177 5,000  Level Jacksonville Center
Thu 11:18:58 30.6219 -81.3067 32° Northeast 154 177 5,000  Level Jacksonville Center
Thu 11:19:58 30.6614 -81.2842 26° Northeast 154 177 5,000  Level Jacksonville Center
Thu 11:20:58 30.6986 -81.2594 30° Northeast 154 177 5,000  Level Jacksonville Center
Thu 11:21:58 30.7403 -81.2417 20° North 154 177 5,000  Level Jacksonville Center
Thu 11:22:58 30.7794 -81.2194 26° Northeast 154 177 5,000  Level Jacksonville Center
Thu 11:23:58 30.8169 -81.1994 25° Northeast 154 177 5,000  Level Jacksonville Center
Thu 11:24:58 30.8606 -81.1792 22° Northeast 154 177 5,000  Level Jacksonville Center
Thu 11:25:58 30.9019 -81.1639 18° North 154 177 5,000  Level Jacksonville Center
Thu 11:26:58 30.9414 -81.1461 21° North 149 171 5,000  Level Jacksonville Center
Thu 11:27:58 30.9831 -81.1286 20° North 149 171 5,000  Level Jacksonville Center
Thu 11:28:58 31.0244 -81.1156 15° North 149 171 5,000  Level Jacksonville Center
Thu 11:29:58 31.0619 -81.0956 25° Northeast 149 171 5,000  Level Jacksonville Center
Thu 11:30:58 31.1011 -81.0753 24° Northeast 149 171 5,000  Level Jacksonville Center
Thu 11:31:58 31.1447 -81.0575 19° North 149 171 5,000  Level Jacksonville Center
Thu 11:32:58 31.1864 -81.0372 23° Northeast 149 171 5,000  Level Jacksonville Center
Thu 11:33:58 31.2256 -81.0169 24° Northeast 149 171 5,000  Level Jacksonville Center
Thu 11:34:58 31.2631 -81.0042 16° North 149 171 5,000  Level Jacksonville Center
Thu 11:35:58 31.3086 -80.9839 21° North 149 171 5,000  Level Jacksonville Center
Thu 11:36:58 31.3481 -80.9658 21° North 149 171 5,000  Level Jacksonville Center
Thu 11:37:58 31.3897 -80.9506 17° North 149 171 5,000  Level Jacksonville Center
Thu 11:38:58 31.4247 -80.9328 23° Northeast 149 171 5,000  Level Jacksonville Center
Thu 11:39:58 31.4664 -80.9197 15° North 149 171 5,000  Level Jacksonville Center
Thu 11:40:58 31.5142 -80.9017 18° North 149 171 5,000  Level Jacksonville Center
Thu 11:41:58 31.5556 -80.8861 18° North 149 171 5,000  Level Jacksonville Center
Thu 11:42:58 31.5950 -80.8658 24° Northeast 149 171 5,000  Level Jacksonville Center
Thu 11:43:58 31.6322 -80.8503 20° North 149 171 5,000  Level Jacksonville Center
Thu 11:44:58 31.6781 -80.8322 19° North 149 171 5,000  Level Jacksonville Center
Thu 11:46:00 31.6994 -80.7880 60° Northeast  Level FlightAware
Thu 11:53:00 31.9644 -80.6403 25° Northeast  Level Estimated
Thu 11:54:00 31.9909 -80.6020 51° Northeast  Level FlightAware
Thu 11:55:00 32.0174 -80.5638 51° Northeast  Level FlightAware
Thu 11:56:00 32.0554 -80.5430 24° Northeast  Level Estimated
Thu 11:57:00 32.0928 -80.5208 27° Northeast  Level FlightAware
Thu 11:58:00 32.1302 -80.4985 27° Northeast  Level FlightAware
Thu 11:59:00 32.1676 -80.4761 27° Northeast  Level FlightAware
Thu 12:00:00 32.2049 -80.4538 27° Northeast  Level FlightAware
Thu 12:01:00 32.2423 -80.4314 27° Northeast  Level FlightAware
Thu 12:02:00 32.2797 -80.4091 27° Northeast  Level FlightAware
Thu 12:03:00 32.3170 -80.3867 27° Northeast  Level FlightAware
Thu 12:04:00 32.3544 -80.3643 27° Northeast  Level FlightAware
Thu 12:05:00 32.3918 -80.3418 27° Northeast  Level FlightAware
Thu 12:06:00 32.4291 -80.3194 27° Northeast  Level FlightAware
Thu 12:07:00 32.4664 -80.2969 27° Northeast  Level FlightAware
Thu 12:08:00 32.5045 -80.2762 24° Northeast  Level Estimated
Thu 12:09:00 32.5425 -80.2553 25° Northeast  Level FlightAware
Thu 12:10:00 32.5805 -80.2344 25° Northeast  Level FlightAware
Thu 12:11:00 32.6185 -80.2134 25° Northeast  Level FlightAware
Thu 12:12:00 32.6565 -80.1925 25° Northeast  Level FlightAware
Thu 12:13:00 32.6944 -80.1715 25° Northeast  Level FlightAware
Thu 12:14:00 32.7325 -80.1507 27° Northeast  Level Estimated
Thu 12:15:00 32.7697 -80.1278 27° Northeast  Level FlightAware
Thu 12:16:00 32.8069 -80.1049 27° Northeast  Level FlightAware
Thu 12:17:00 32.8441 -80.0820 27° Northeast  Level FlightAware
Thu 12:18:00 32.8813 -80.0591 27° Northeast  Level FlightAware
Thu 12:19:00 32.9185 -80.0361 27° Northeast  Level FlightAware
Thu 12:20:00 32.9566 -80.0154 23° Northeast  Level Estimated
Thu 12:21:00 32.9950 -79.9955 24° Northeast  Level FlightAware
Thu 12:22:00 33.0333 -79.9754 24° Northeast  Level FlightAware
Thu 12:23:00 33.0717 -79.9554 24° Northeast  Level FlightAware
Thu 12:24:00 33.1101 -79.9354 24° Northeast  Level FlightAware
Thu 12:25:00 33.1484 -79.9153 24° Northeast  Level FlightAware
Thu 12:26:00 33.1868 -79.8952 24° Northeast  Level FlightAware
Thu 12:27:00 33.2252 -79.8752 24° Northeast  Level FlightAware
Thu 12:28:00 33.2635 -79.8550 24° Northeast  Level FlightAware
Thu 12:29:00 33.3019 -79.8349 24° Northeast  Level FlightAware
Thu 12:30:00 33.3402 -79.8148 24° Northeast  Level FlightAware
Thu 12:31:00 33.3786 -79.7946 24° Northeast  Level FlightAware
Thu 12:32:00 33.4166 -79.7735 25° Northeast  Level Estimated
Thu 12:33:00 33.4544 -79.7520 25° Northeast  Level FlightAware
Thu 12:34:00 33.4923 -79.7305 25° Northeast  Level FlightAware
Thu 12:35:00 33.5301 -79.7090 25° Northeast  Level FlightAware
Thu 12:36:00 33.5680 -79.6874 25° Northeast  Level FlightAware
Thu 12:37:00 33.6058 -79.6659 25° Northeast  Level FlightAware
Thu 12:38:00 33.6436 -79.6443 25° Northeast  Level FlightAware
Thu 12:39:00 33.6815 -79.6227 25° Northeast  Level FlightAware
Thu 12:40:00 33.7193 -79.6011 25° Northeast  Level FlightAware
Thu 12:41:00 33.7571 -79.5795 25° Northeast  Level FlightAware
Thu 12:42:00 33.7949 -79.5578 25° Northeast  Level FlightAware
Thu 12:43:00 33.8327 -79.5361 25° Northeast  Level FlightAware
Thu 12:44:00 33.8707 -79.5149 27° Northeast  Level Estimated
Thu 12:45:00 33.9078 -79.4915 28° Northeast  Level FlightAware
Thu 12:46:00 33.9450 -79.4681 28° Northeast  Level FlightAware
Thu 12:47:00 33.9821 -79.4447 28° Northeast  Level FlightAware
Thu 12:48:00 34.0201 -79.4237 25° Northeast  Level Estimated
Thu 12:49:00 34.0581 -79.4023 25° Northeast  Level FlightAware
Thu 12:50:00 34.0961 -79.3810 25° Northeast  Level FlightAware
Thu 12:51:00 34.1340 -79.3596 25° Northeast  Level FlightAware
Thu 12:52:00 34.1720 -79.3383 25° Northeast  Level FlightAware
Thu 12:53:00 34.2100 -79.3169 25° Northeast  Level FlightAware
Thu 12:54:00 34.2479 -79.2955 25° Northeast  Level FlightAware
Thu 12:55:00 34.2859 -79.2740 25° Northeast  Level FlightAware
Thu 12:56:00 34.3238 -79.2526 25° Northeast  Level FlightAware
Thu 12:57:00 34.3618 -79.2311 25° Northeast  Level FlightAware
Thu 12:58:00 34.3999 -79.2100 25° Northeast  Level Estimated
Thu 12:59:00 34.4380 -79.1889 25° Northeast  Level FlightAware
Thu 13:00:00 34.4760 -79.1677 25° Northeast  Level FlightAware
Thu 13:01:00 34.5141 -79.1465 25° Northeast  Level FlightAware
Thu 13:02:00 34.5522 -79.1253 25° Northeast  Level FlightAware
Thu 13:03:00 34.5902 -79.1040 25° Northeast  Level FlightAware
Thu 13:04:00 34.6283 -79.0828 25° Northeast  Level FlightAware
Thu 13:05:00 34.6663 -79.0615 25° Northeast  Level FlightAware
Thu 13:06:00 34.7044 -79.0404 26° Northeast  Level Estimated
Thu 13:07:00 34.7422 -79.0184 26° Northeast  Level FlightAware
Thu 13:08:00 34.7800 -78.9964 26° Northeast  Level FlightAware
Thu 13:09:00 34.8178 -78.9744 26° Northeast  Level FlightAware
Thu 13:10:00 34.8555 -78.9523 26° Northeast  Level FlightAware

Login

Don't have an account? Register now (free) for customized features, flight alerts, and more!